Terminal Aerodrome Forecast
Issued by NWS

Home | Current Version | Previous Version | Graphics & Text | Print | Product List | Glossary On
Versions: 1 2 3 4 5 6 7 8 9 10 11 12 13 14 15 16 17
000
FTUS43 KTOP 181100
TAFFOE
TAF
KFOE 181131Z 1812/1912 08006KT 2SM -SN BR FEW003 OVC013
     FM181500 08004KT 4SM BR OVC008
     FM182000 06003KT 6SM BR OVC012=

USA.gov is the U.S. government's official web portal to all federal, state and local government web resources and services.